Time;durP1;ratioP1;P1;durP2;ratioP2;P2;SDS_P1;SDS_P2;PMS_P1;PMS_P2;Temp;Humidity;BMP_temperature;BMP_pressure;BME280_temperature;BME280_humidity;BME280_pressure;Samples;Min_cycle;Max_cycle;Signal;HPM_P1;HPM_P2
2021/01/29 15:26:28;;;;;;;27.87;15.67;;;;;;;-0.58;73.46;98303.11;1800673;78;28086;-77
2021/01/29 15:29:10;;;;;;;24.57;14.20;;;;;;;-0.59;73.60;98299.31;1738224;81;21156;-83
2021/01/29 15:31:42;;;;;;;27.60;16.33;;;;;;;-0.62;73.51;98295.73;1739665;81;21139;-79
2021/01/29 15:34:12;;;;;;;24.80;14.37;;;;;;;-0.62;73.57;98299.76;1735374;81;21608;-76
2021/01/29 15:36:45;;;;;;;28.52;16.07;;;;;;;-0.65;73.75;98282.22;1745889;81;21125;-74
2021/01/29 15:39:27;;;;;;;30.47;17.57;;;;;;;-0.68;73.51;98284.01;1741942;81;21112;-79
2021/01/29 15:41:58;;;;;;;27.00;15.67;;;;;;;-0.69;73.81;98283.73;1749993;81;21141;-76
2021/01/29 15:44:32;;;;;;;28.57;17.03;;;;;;;-0.72;73.79;98287.69;1728321;81;21100;-72
2021/01/29 15:47:04;;;;;;;26.00;15.53;;;;;;;-0.74;73.88;98293.81;1736153;81;21186;-72
2021/01/29 15:49:42;;;;;;;27.03;15.40;;;;;;;-0.75;74.31;98291.33;1742617;81;21200;-73
2021/01/29 15:52:21;;;;;;;24.50;14.60;;;;;;;-0.76;74.08;98292.39;1731141;81;21120;-79
2021/01/29 15:54:54;;;;;;;28.57;16.10;;;;;;;-0.77;73.86;98290.22;1742791;81;21136;-76
2021/01/29 15:57:41;;;;;;;32.80;16.23;;;;;;;-0.77;74.26;98294.25;1729073;81;21132;-78
2021/01/29 16:00:37;;;;;;;26.17;14.87;;;;;;;-0.76;74.23;98291.05;1737365;81;21540;-77
2021/01/29 16:03:06;;;;;;;27.83;14.80;;;;;;;-0.77;74.33;98282.17;1746827;81;21099;-82
2021/01/29 16:05:43;;;;;;;27.32;14.95;;;;;;;-0.77;74.52;98284.85;1730860;81;21163;-82
2021/01/29 16:08:20;;;;;;;26.80;15.40;;;;;;;-0.76;74.04;98294.53;1757798;81;21094;-77
2021/01/29 16:10:50;;;;;;;26.83;15.03;;;;;;;-0.76;73.84;98284.34;1725117;82;21234;-76
2021/01/29 16:13:32;;;;;;;27.13;15.13;;;;;;;-0.75;74.04;98288.64;1729204;81;21155;-81
2021/01/29 16:16:08;;;;;;;26.50;14.73;;;;;;;-0.76;74.09;98292.39;1761826;80;21123;-76
2021/01/29 16:18:36;;;;;;;28.00;15.10;;;;;;;-0.76;73.86;98298.56;1708036;82;21099;-76
2021/01/29 16:21:06;;;;;;;27.07;14.65;;;;;;;-0.74;73.89;98294.33;1754321;80;21479;-79
2021/01/29 16:23:35;;;;;;;27.13;14.97;;;;;;;-0.73;73.94;98295.44;1732029;81;21092;-82
2021/01/29 16:26:17;;;;;;;25.93;14.90;;;;;;;-0.72;73.83;98296.27;1769239;80;21132;-82
2021/01/29 16:28:49;;;;;;;27.13;14.67;;;;;;;-0.74;73.65;98291.13;1736218;80;21571;-84
2021/01/29 16:31:36;;;;;;;25.23;14.63;;;;;;;-0.74;73.56;98296.50;1718698;82;21709;-80
2021/01/29 16:34:12;;;;;;;26.60;14.73;;;;;;;-0.74;74.07;98289.78;1736761;81;21632;-75
2021/01/29 16:36:41;;;;;;;27.27;15.27;;;;;;;-0.70;73.87;98292.82;1736177;81;21187;-76
2021/01/29 16:39:19;;;;;;;29.90;14.70;;;;;;;-0.69;73.52;98289.10;1705587;82;21590;-77
2021/01/29 16:41:46;;;;;;;28.73;15.93;;;;;;;-0.69;73.45;98287.76;1733741;81;21560;-81
2021/01/29 16:44:26;;;;;;;27.27;15.28;;;;;;;-0.70;73.50;98290.13;1735658;81;21096;-83
2021/01/29 16:46:54;;;;;;;26.37;14.83;;;;;;;-0.70;73.35;98282.91;1735241;81;21172;-84
2021/01/29 16:49:29;;;;;;;32.10;15.27;;;;;;;-0.70;73.69;98280.22;1697727;81;21302;-81
2021/01/29 16:52:00;;;;;;;27.43;15.27;;;;;;;-0.68;73.70;98282.15;1745911;81;21239;-77
2021/01/29 16:54:34;;;;;;;26.57;14.53;;;;;;;-0.68;73.76;98290.20;1740257;81;21685;-77
2021/01/29 16:57:08;;;;;;;27.17;14.70;;;;;;;-0.68;74.07;98284.84;1741559;81;21155;-84
2021/01/29 16:59:38;;;;;;;22.90;14.17;;;;;;;-0.67;74.60;98295.89;1724302;81;21116;-82
2021/01/29 17:02:19;;;;;;;27.53;14.50;;;;;;;-0.67;74.59;98295.89;1737878;81;21132;-75
2021/01/29 17:04:52;;;;;;;30.27;15.10;;;;;;;-0.69;75.43;98293.96;1746544;81;21203;-77
2021/01/29 17:07:43;;;;;;;31.37;14.70;;;;;;;-0.72;75.59;98295.75;1727647;81;21151;-73
2021/01/29 17:10:23;;;;;;;26.37;14.53;;;;;;;-0.73;76.86;98286.55;1732280;82;21464;-73
2021/01/29 17:13:00;;;;;;;28.13;15.43;;;;;;;-0.77;77.05;98287.53;1743365;81;21163;-74
2021/01/29 17:15:30;;;;;;;28.07;16.27;;;;;;;-0.78;77.46;98289.91;1737461;82;21610;-72
2021/01/29 17:18:09;;;;;;;29.37;15.93;;;;;;;-0.82;77.59;98290.08;1697650;81;21602;-74
2021/01/29 17:20:37;;;;;;;28.43;15.13;;;;;;;-0.83;78.32;98285.73;1717830;81;21132;-75
2021/01/29 17:23:15;;;;;;;26.57;14.87;;;;;;;-0.84;78.57;98294.86;1736226;81;21544;-74
2021/01/29 17:25:52;;;;;;;31.27;16.40;;;;;;;-0.87;78.94;98295.30;1736241;81;21128;-75
2021/01/29 17:28:27;;;;;;;30.43;16.45;;;;;;;-0.89;79.70;98290.67;1738442;81;21235;-78
2021/01/29 17:30:57;;;;;;;26.10;15.30;;;;;;;-0.90;80.32;98289.53;1762792;80;21111;-81
2021/01/29 17:33:31;;;;;;;;;;;;;;;-0.93;80.58;98292.15;1733378;81;21128;-80
2021/01/29 17:36:28;;;;;;;35.17;16.97;;;;;;;-0.94;81.24;98287.84;1751699;81;20213;-81
2021/01/29 17:39:16;;;;;;;28.53;15.77;;;;;;;-0.98;82.00;98282.59;1730573;81;21515;-81
2021/01/29 17:41:48;;;;;;;;;;;;;;;-1.02;82.64;98281.41;1748779;81;21219;-80
2021/01/29 17:44:26;;;;;;;30.00;16.00;;;;;;;-1.05;83.46;98280.52;1746720;81;20456;-86
2021/01/29 17:47:06;;;;;;;27.45;15.95;;;;;;;-1.09;83.83;98277.98;1749060;81;21080;-83
2021/01/29 17:49:39;;;;;;;29.43;16.43;;;;;;;-1.12;84.17;98279.77;1730082;81;21304;-81
2021/01/29 17:52:28;;;;;;;31.13;17.13;;;;;;;-1.15;84.30;98272.66;1763877;81;21151;-86
2021/01/29 17:54:56;;;;;;;32.33;16.37;;;;;;;-1.15;84.79;98278.03;1743405;81;21124;-82
2021/01/29 17:57:34;;;;;;;;;;;;;;;-1.17;85.28;98280.95;1713733;82;21147;-79
2021/01/29 18:00:15;;;;;;;31.90;17.20;;;;;;;-1.20;85.37;98270.66;1739168;81;20224;-82
2021/01/29 18:02:43;;;;;;;32.20;18.10;;;;;;;-1.22;85.68;98269.23;1740981;81;21130;-84
2021/01/29 18:05:16;;;;;;;38.45;19.07;;;;;;;-1.27;85.84;98261.86;1739918;81;21812;-77
2021/01/29 18:08:05;;;;;;;31.73;17.67;;;;;;;-1.26;86.25;98266.16;1740098;81;21124;-78
2021/01/29 18:10:36;;;;;;;34.63;18.93;;;;;;;-1.25;86.32;98261.11;1741094;81;21117;-74
2021/01/29 18:13:12;;;;;;;35.13;18.80;;;;;;;-1.24;86.36;98259.25;1749345;81;21246;-79
2021/01/29 18:15:51;;;;;;;36.00;19.63;;;;;;;-1.23;86.44;98258.19;1742905;81;21166;-76
2021/01/29 18:18:23;;;;;;;37.67;19.40;;;;;;;-1.22;86.63;98259.33;1773075;81;21512;-79
2021/01/29 18:21:08;;;;;;;35.10;19.73;;;;;;;-1.20;86.70;98263.95;1746498;81;21271;-76
2021/01/29 18:23:41;;;;;;;33.67;19.43;;;;;;;-1.18;86.74;98262.37;1722603;81;21536;-75
2021/01/29 18:26:11;;;;;;;38.07;19.93;;;;;;;-1.19;86.86;98254.86;1748121;81;21202;-73
2021/01/29 18:28:39;;;;;;;37.13;19.70;;;;;;;-1.20;87.09;98257.23;1740598;82;21575;-71
2021/01/29 18:31:08;;;;;;;35.73;19.62;;;;;;;-1.19;87.14;98260.74;1755878;81;21290;-80
2021/01/29 18:33:41;;;;;;;34.93;18.63;;;;;;;-1.18;87.27;98258.34;1737708;82;21111;-75
2021/01/29 18:36:13;;;;;;;34.47;19.27;;;;;;;-1.18;87.29;98252.45;1741045;81;21251;-75
2021/01/29 18:38:42;;;;;;;33.67;19.37;;;;;;;-1.19;87.27;98249.50;1763048;81;21334;-83
2021/01/29 18:41:13;;;;;;;32.53;18.10;;;;;;;-1.18;87.38;98241.72;1732824;81;21667;-78
2021/01/29 18:43:41;;;;;;;32.93;18.57;;;;;;;-1.17;87.38;98246.06;1714520;82;21164;-82
2021/01/29 18:46:10;;;;;;;30.80;17.70;;;;;;;-1.14;87.40;98242.11;1721705;82;21101;-78
2021/01/29 18:48:39;;;;;;;41.98;22.10;;;;;;;-1.13;87.46;98237.84;1731633;81;21110;-78
2021/01/29 18:51:08;;;;;;;32.70;18.37;;;;;;;-1.12;87.37;98238.16;1732958;81;21135;-80
2021/01/29 18:53:35;;;;;;;36.20;19.00;;;;;;;-1.11;87.53;98241.67;1746539;81;21143;-80
2021/01/29 18:56:04;;;;;;;34.60;17.98;;;;;;;-1.11;87.58;98237.09;1735415;81;21148;-78
2021/01/29 18:58:31;;;;;;;;;;;;;;;-1.10;87.46;98238.75;1750241;81;21207;-78
2021/01/29 19:00:59;;;;;;;36.15;18.87;;;;;;;-1.07;87.32;98241.51;1774555;80;20276;-81
2021/01/29 19:03:28;;;;;;;31.27;18.40;;;;;;;-1.07;87.21;98240.99;1738482;81;21391;-80
2021/01/29 19:05:56;;;;;;;33.20;17.57;;;;;;;-1.05;87.14;98244.78;1741369;81;21115;-82
2021/01/29 19:08:24;;;;;;;30.68;18.17;;;;;;;-1.06;86.98;98242.62;1765677;81;21578;-86
2021/01/29 19:10:52;;;;;;;37.55;18.87;;;;;;;-1.05;86.86;98241.59;1754277;81;21100;-78
2021/01/29 19:13:19;;;;;;;33.60;19.57;;;;;;;-1.04;86.71;98240.55;1748429;81;21595;-74
2021/01/29 19:15:49;;;;;;;34.25;17.98;;;;;;;-1.02;86.74;98254.56;1736998;81;21183;-80
2021/01/29 19:18:18;;;;;;;35.87;19.90;;;;;;;-1.01;86.63;98241.97;1709197;82;21607;-77
2021/01/29 19:20:49;;;;;;;34.75;19.42;;;;;;;-1.01;86.66;98248.14;1730880;80;21582;-83
2021/01/29 19:23:17;;;;;;;34.17;19.07;;;;;;;-0.99;86.75;98242.56;1786091;80;21135;-77
2021/01/29 19:25:45;;;;;;;34.07;18.27;;;;;;;-0.98;86.68;98242.33;1763648;80;21158;-76
2021/01/29 19:28:13;;;;;;;33.55;18.95;;;;;;;-0.97;86.73;98245.84;1703784;84;21141;-75
2021/01/29 19:30:41;;;;;;;33.38;18.40;;;;;;;-0.95;86.71;98244.56;1734004;81;21152;-75
2021/01/29 19:33:10;;;;;;;;;;;;;;;-0.95;86.66;98234.34;1742260;81;21256;-75
2021/01/29 19:35:38;;;;;;;33.28;18.40;;;;;;;-0.95;86.71;98231.66;1744939;81;20220;-75
2021/01/29 19:38:06;;;;;;;31.68;17.80;;;;;;;-0.94;86.51;98231.97;1750426;81;21124;-77
2021/01/29 19:40:36;;;;;;;31.40;17.85;;;;;;;-0.95;86.41;98231.14;1756430;81;21175;-76
2021/01/29 19:43:05;;;;;;;30.70;18.40;;;;;;;-0.95;86.36;98228.97;1761993;80;21115;-79
2021/01/29 19:45:35;;;;;;;33.50;18.70;;;;;;;-0.93;86.22;98234.42;1731337;81;21129;-81
2021/01/29 19:48:06;;;;;;;33.53;18.87;;;;;;;-0.92;85.92;98236.07;1771298;80;21151;-76
2021/01/29 19:50:35;;;;;;;34.77;18.73;;;;;;;-0.93;85.86;98238.45;1776662;80;21156;-83
2021/01/29 19:53:05;;;;;;;34.27;18.97;;;;;;;-0.94;86.02;98232.80;1730844;81;21161;-76
2021/01/29 19:55:34;;;;;;;32.47;18.30;;;;;;;-0.93;85.92;98227.70;1740069;81;21164;-77
2021/01/29 19:58:03;;;;;;;33.37;18.27;;;;;;;-0.93;85.74;98226.88;1753531;81;21120;-76
2021/01/29 20:00:35;;;;;;;33.40;17.97;;;;;;;-0.92;85.56;98227.19;1754860;81;21749;-72
2021/01/29 20:03:05;;;;;;;31.53;16.17;;;;;;;-0.91;85.57;98230.19;1745122;81;21104;-77
2021/01/29 20:05:33;;;;;;;29.47;15.93;;;;;;;-0.91;85.01;98229.64;1725353;82;21152;-80
2021/01/29 20:08:01;;;;;;;25.68;14.55;;;;;;;-0.91;85.03;98226.16;1735878;81;21166;-78
2021/01/29 20:10:33;;;;;;;25.80;14.10;;;;;;;-0.92;84.80;98222.64;1754793;81;21267;-79
2021/01/29 20:13:05;;;;;;;25.13;14.23;;;;;;;-0.95;84.49;98223.09;1746442;81;21256;-79
2021/01/29 20:15:42;;;;;;;25.50;14.20;;;;;;;-0.96;84.67;98214.72;1773485;81;21133;-78
2021/01/29 20:18:15;;;;;;;26.67;14.73;;;;;;;-0.95;84.74;98225.77;1754484;81;21167;-80
2021/01/29 20:20:43;;;;;;;26.30;15.57;;;;;;;-0.97;84.45;98224.36;1773447;81;21112;-81
2021/01/29 20:23:12;;;;;;;23.92;14.78;;;;;;;-0.96;84.70;98226.80;1744368;81;21188;-79
2021/01/29 20:25:40;;;;;;;27.55;14.45;;;;;;;-1.00;84.26;98224.28;1740900;82;21136;-83
2021/01/29 20:28:09;;;;;;;25.33;14.30;;;;;;;-1.04;84.12;98224.45;1757053;81;21158;-83
2021/01/29 20:30:38;;;;;;;24.97;15.17;;;;;;;-1.06;84.51;98226.51;1718616;82;21115;-82
2021/01/29 20:33:07;;;;;;;27.47;15.33;;;;;;;-1.08;84.32;98225.92;1737670;81;21176;-78
2021/01/29 20:35:35;;;;;;;26.10;14.33;;;;;;;-1.16;84.33;98224.07;1744503;81;21143;-76
2021/01/29 20:38:06;;;;;;;23.90;14.00;;;;;;;-1.19;84.13;98225.85;1744759;81;21105;-79
2021/01/29 20:40:35;;;;;;;23.97;13.67;;;;;;;-1.28;83.03;98223.97;1749807;81;21117;-81
2021/01/29 20:43:06;;;;;;;26.53;13.70;;;;;;;-1.32;83.69;98226.81;1740593;81;21168;-77
2021/01/29 20:45:37;;;;;;;24.17;13.53;;;;;;;-1.34;83.92;98227.02;1746080;81;21545;-79
2021/01/29 20:48:07;;;;;;;22.23;13.53;;;;;;;-1.38;82.97;98226.34;1744018;81;21135;-83
2021/01/29 20:50:40;;;;;;;24.70;14.30;;;;;;;-1.39;83.58;98228.72;1764853;81;21152;-74
2021/01/29 20:53:10;;;;;;;24.87;14.43;;;;;;;-1.35;83.90;98229.94;1746729;81;21128;-77
2021/01/29 20:55:40;;;;;;;25.27;14.07;;;;;;;-1.40;83.37;98225.75;1749399;81;21089;-82
2021/01/29 20:58:11;;;;;;;23.47;13.20;;;;;;;-1.38;83.67;98225.00;1743512;81;21140;-80
2021/01/29 21:00:40;;;;;;;25.67;13.63;;;;;;;-1.41;83.46;98216.05;1740490;81;21641;-73
2021/01/29 21:03:09;;;;;;;25.00;13.80;;;;;;;-1.43;83.56;98214.12;1751415;81;21123;-77
2021/01/29 21:05:37;;;;;;;26.27;14.03;;;;;;;-1.45;83.70;98214.87;1757023;81;21618;-79
2021/01/29 21:08:07;;;;;;;25.93;14.53;;;;;;;-1.45;83.85;98216.21;1734855;81;21422;-82
2021/01/29 21:10:37;;;;;;;25.20;14.23;;;;;;;-1.45;83.87;98217.55;1728729;81;21141;-79
2021/01/29 21:13:07;;;;;;;24.37;14.20;;;;;;;-1.46;84.03;98219.41;1736468;81;21128;-83
2021/01/29 21:15:36;;;;;;;25.87;14.23;;;;;;;-1.47;83.83;98216.95;1717154;81;21567;-79
2021/01/29 21:18:11;;;;;;;26.27;14.80;;;;;;;-1.48;83.77;98221.50;1739630;81;21141;-80
2021/01/29 21:20:39;;;;;;;25.00;14.47;;;;;;;-1.49;83.93;98220.36;1741216;81;21227;-77
2021/01/29 21:23:07;;;;;;;26.40;14.85;;;;;;;-1.50;83.84;98216.87;1741338;81;21147;-78
2021/01/29 21:25:35;;;;;;;30.87;16.30;;;;;;;-1.49;83.88;98214.99;1749042;81;21132;-82
2021/01/29 21:28:04;;;;;;;28.67;16.25;;;;;;;-1.47;83.88;98202.20;1743649;81;21128;-82
2021/01/29 21:30:32;;;;;;;35.03;17.77;;;;;;;-1.51;83.65;98205.02;1742050;81;21132;-79
2021/01/29 21:33:01;;;;;;;40.80;20.05;;;;;;;-1.54;83.97;98212.16;1742640;81;21152;-86
2021/01/29 21:35:39;;;;;;;34.50;17.60;;;;;;;-1.53;84.02;98217.83;1741964;81;21172;-75
2021/01/29 21:38:11;;;;;;;37.17;18.55;;;;;;;-1.52;83.64;98207.41;1740088;81;21147;-81
2021/01/29 21:40:40;;;;;;;37.10;19.00;;;;;;;-1.52;83.84;98207.41;1737858;81;21150;-81
2021/01/29 21:43:08;;;;;;;33.90;18.30;;;;;;;-1.54;83.73;98207.61;1745478;81;21145;-75
2021/01/29 21:45:40;;;;;;;35.10;17.67;;;;;;;-1.54;83.87;98210.81;1741851;81;21127;-78
2021/01/29 21:48:14;;;;;;;32.60;16.27;;;;;;;-1.53;83.94;98210.61;1740768;81;21251;-74
2021/01/29 21:50:42;;;;;;;31.93;16.67;;;;;;;-1.51;83.52;98215.73;1746531;81;21167;-77
2021/01/29 21:53:10;;;;;;;26.10;14.33;;;;;;;-1.53;83.66;98215.14;1746278;81;21137;-79
2021/01/29 21:55:38;;;;;;;27.87;14.13;;;;;;;-1.53;83.60;98205.77;1707503;82;21148;-77
2021/01/29 21:58:06;;;;;;;26.52;14.23;;;;;;;-1.51;83.61;98200.98;1743350;81;21140;-75
2021/01/29 22:00:34;;;;;;;23.50;13.22;;;;;;;-1.50;83.49;98208.00;1727542;81;21184;-77
2021/01/29 22:03:03;;;;;;;31.62;16.42;;;;;;;-1.50;83.31;98208.83;1743915;81;21168;-78
2021/01/29 22:07:22;;;;;;;27.10;15.07;;;;;;;-1.46;83.38;98204.66;1807309;77;22297;-78
2021/01/29 22:09:50;;;;;;;26.60;14.35;;;;;;;-1.51;83.40;98199.64;1775276;80;21164;-77
2021/01/29 22:12:19;;;;;;;25.10;14.43;;;;;;;-1.53;83.28;98197.71;1750625;80;21136;-79
2021/01/29 22:14:47;;;;;;;26.27;14.10;;;;;;;-1.58;83.17;98197.55;1752337;80;21195;-79
2021/01/29 22:17:15;;;;;;;24.25;13.90;;;;;;;-1.63;83.24;98202.25;1746691;81;21630;-73
2021/01/29 22:19:44;;;;;;;25.85;13.50;;;;;;;-1.70;83.07;98200.16;1753591;80;21556;-75
2021/01/29 22:22:12;;;;;;;27.50;15.18;;;;;;;-1.76;83.00;98196.17;1748668;80;21103;-76
2021/01/29 22:24:43;;;;;;;29.35;15.75;;;;;;;-1.81;83.06;98205.40;1749698;80;21655;-75
2021/01/29 22:27:13;;;;;;;33.33;18.13;;;;;;;-1.86;83.20;98211.94;1752911;80;21249;-73
2021/01/29 22:29:43;;;;;;;30.80;18.13;;;;;;;-1.93;83.35;98214.69;1751680;80;23624;-74
2021/01/29 22:35:42;;;;;;;28.33;16.00;;;;;;;-1.93;83.65;98220.05;1751346;80;21171;-73
2021/01/29 22:38:10;;;;;;;30.70;16.02;;;;;;;-1.92;83.74;98214.45;1751515;80;21201;-74
2021/01/29 22:40:39;;;;;;;33.85;16.85;;;;;;;-1.90;83.66;98222.81;1682942;84;21135;-73
2021/01/29 22:43:07;;;;;;;;;;;;;;;-1.89;83.82;98224.44;1718747;82;21168;-77
2021/01/29 22:45:35;;;;;;;26.48;14.10;;;;;;;-1.88;83.96;98233.62;1717894;82;20234;-75
2021/01/29 22:48:04;;;;;;;28.10;13.73;;;;;;;-1.88;83.69;98243.52;1687884;84;21133;-74
2021/01/29 22:50:33;;;;;;;24.70;13.03;;;;;;;-1.89;83.60;98257.44;1684492;83;21166;-73
2021/01/29 22:53:00;;;;;;;24.37;13.08;;;;;;;-1.92;83.20;98265.91;1701092;83;21200;-76
2021/01/29 22:55:28;;;;;;;23.67;12.58;;;;;;;-1.95;83.55;98265.02;1700106;83;21572;-75
2021/01/29 22:57:57;;;;;;;25.65;14.40;;;;;;;-1.97;83.68;98257.69;1700399;83;21583;-75
2021/01/29 23:00:31;;;;;;;;;;;;;;;-1.95;83.78;98265.02;1702083;83;21196;-76
2021/01/29 23:02:58;;;;;;;24.83;13.63;;;;;;;-1.94;83.38;98270.16;1696056;83;20184;-78
2021/01/29 23:05:35;;;;;;;23.42;13.30;;;;;;;-1.96;83.08;98265.53;1693837;83;21167;-77
2021/01/29 23:08:06;;;;;;;27.27;14.97;;;;;;;-1.96;83.35;98271.41;1691665;83;21200;-76
2021/01/29 23:10:40;;;;;;;22.63;12.33;;;;;;;-1.98;83.04;98268.96;1695094;83;21669;-77
2021/01/29 23:13:09;;;;;;;24.20;14.17;;;;;;;-1.99;82.63;98269.98;1696595;83;21184;-75
2021/01/29 23:15:37;;;;;;;25.70;13.63;;;;;;;-1.99;82.97;98262.45;1702932;83;21229;-76
2021/01/29 23:18:08;;;;;;;25.77;13.87;;;;;;;-1.97;82.98;98259.03;1686658;84;21176;-76
2021/01/29 23:20:40;;;;;;;24.53;14.47;;;;;;;-1.97;82.81;98258.52;1684819;84;21152;-78
2021/01/29 23:23:09;;;;;;;24.57;14.00;;;;;;;-1.96;82.68;98257.49;1685332;84;21146;-77
2021/01/29 23:25:37;;;;;;;24.83;14.13;;;;;;;-1.96;82.34;98258.00;1715121;82;21334;-76
2021/01/29 23:28:08;;;;;;;;;;;;;;;-1.95;82.46;98261.80;1676095;83;21175;-76
2021/01/29 23:30:36;;;;;;;22.93;13.80;;;;;;;-1.93;82.59;98266.96;1681264;84;20184;-77
2021/01/29 23:33:04;;;;;;;27.85;14.95;;;;;;;-1.92;82.64;98267.24;1687301;83;21171;-76
2021/01/29 23:35:36;;;;;;;25.50;14.40;;;;;;;-1.89;82.52;98276.71;1698497;83;21268;-77
2021/01/29 23:38:05;;;;;;;26.43;15.70;;;;;;;-1.88;82.40;98273.83;1705674;83;21240;-77
2021/01/29 23:40:33;;;;;;;27.27;15.00;;;;;;;-1.86;82.47;98273.60;1687618;84;21207;-77
2021/01/29 23:43:01;;;;;;;23.10;14.65;;;;;;;-1.83;82.25;98279.88;1689470;85;21686;-75
2021/01/29 23:45:30;;;;;;;26.90;15.23;;;;;;;-1.82;82.31;98274.83;1684518;83;21237;-78
2021/01/29 23:48:00;;;;;;;27.33;14.83;;;;;;;-1.83;82.03;98279.88;1698045;83;21184;-72
2021/01/29 23:50:29;;;;;;;26.93;14.20;;;;;;;-1.83;82.37;98281.22;1672058;84;21154;-76
2021/01/29 23:53:03;;;;;;;26.63;14.97;;;;;;;-1.81;82.53;98283.16;1689315;85;21206;-78
2021/01/29 23:55:31;;;;;;;27.13;15.23;;;;;;;-1.82;82.24;98290.91;1661492;83;21715;-73
2021/01/29 23:58:00;;;;;;;;;;;;;;;-1.84;82.43;98291.11;1684888;83;21161;-72
